McCarran International Airport
KLAS : now visible

Aeroporto :











RITROVATECI SU...

 
LOGIN :

Iscrizione | Disclaimer

   EN    FR    IT 

 









Sommario :    VFR   VFR Marginale   IFR   IFR Intensivo   IFR Molto Intensivo
Visibilità : 
Base nubi : 
>= 8 km
>= 3000ft
5 / 8 km
1000 / 3000 ft
1500m / 5 km
500 / 1000 ft
800 / 1500m
200 / 500 ft
< 800m
< 200 ft
Simboli :   Temporali  Nebbia  Neve Forte  Precipitazioni Forti  Vento > 20 kt






- Altitudine del aeroporto : 2181 ft
- Codice IATA : LAS


KLAS - McCarran International

ULTIMO METAR :
  • 250856Z 22004KT 10SM CLR 27/10 A2989 RMK AO2 SLP096 T02670100 55001

METARs OBSOLETI :
  • 250756Z 00000KT 10SM CLR 28/10 A2989 RMK AO2 SLP093 T02830100 403500250
  • 250656Z 00000KT 10SM FEW180 29/10 A2989 RMK AO2 SLP091 T02890100

TAF KLAS
Valido dal 25 a 09 ore il 26 a 12 ore UTC


250848Z 2509/2612 VRB05KT P6SM SKC
FM251800 10006KT P6SM FEW120
FM252200 VRB05KT P6SM SKC
FM260400 22007KT P6SM SKC
FIR KZLA / America del Nord



MetMap, La meteo Aeronautica in un colpo d'occhio ! - Copyright ORBIFLY Dicembre 2007 - Disclaimer

ORBIFLY MET'MAP TEAM :

Programmazione e sviluppo : Alexandra Zaïnal
Concezione : Baudouin d'Aumeries
Aiuto per la programmazione : Marc-Olivier Méhu
Supporto tecnico e logistico : Manuel Goepfert
Aiuto per la traduzione : Arnaldo La Scala

Contatto : metmap@orbifly.com




FONTI E CREDITI :

   NOAA       Earth
Advisory